createdAt,value
2022-08-10T00:01:38.745Z,101708.66
2022-08-10T00:04:06.699Z,101703.63
2022-08-10T00:06:36.033Z,101698.59
2022-08-10T00:09:04.158Z,101697.88
2022-08-10T00:11:32.005Z,101698.03
2022-08-10T00:13:59.805Z,101694.22
2022-08-10T00:16:28.552Z,101694.75
2022-08-10T00:18:56.339Z,101696.50
2022-08-10T00:21:24.357Z,101703.91
2022-08-10T00:23:56.516Z,101696.03
2022-08-10T00:26:24.319Z,101696.75
2022-08-10T00:28:52.429Z,101688.38
2022-08-10T00:31:20.279Z,101689.59
2022-08-10T00:33:48.065Z,101690.78
2022-08-10T00:36:15.869Z,101692.63
2022-08-10T00:38:43.768Z,101688.28
2022-08-10T00:41:12.874Z,101671.53
2022-08-10T00:43:40.686Z,101680.53
2022-08-10T00:46:08.495Z,101673.22
2022-08-10T00:48:36.274Z,101675.91
2022-08-10T00:51:04.254Z,101651.47
2022-08-10T00:53:32.180Z,101652.84
2022-08-10T00:57:14.485Z,101670.22
2022-08-10T00:58:49.660Z,101674.78
2022-08-10T01:02:07.714Z,101655.53
2022-08-10T01:04:57.501Z,101669.66
2022-08-10T01:07:08.415Z,101668.31
2022-08-10T01:09:44.608Z,101672.88
2022-08-10T01:12:39.817Z,101662.28
2022-08-10T01:15:20.026Z,101668.19
2022-08-10T01:17:54.896Z,101664.03
2022-08-10T01:20:30.718Z,101663.19
2022-08-10T01:23:35.648Z,101649.31
2022-08-10T01:26:31.499Z,101636.06
2022-08-10T01:29:17.760Z,101665.28
2022-08-10T01:31:52.034Z,101658.75
2022-08-10T01:34:24.674Z,101663.09
2022-08-10T01:36:57.102Z,101633.63
2022-08-10T01:39:29.375Z,101658.06
2022-08-10T01:41:59.746Z,101652.56
2022-08-10T01:44:33.384Z,101654.06
2022-08-10T01:47:27.370Z,101653.03
2022-08-10T01:50:02.998Z,101654.06
2022-08-10T01:52:33.922Z,101655.25
2022-08-10T01:55:01.797Z,101661.19
2022-08-10T01:57:34.273Z,101636.69
2022-08-10T02:00:03.635Z,101660.03
2022-08-10T02:02:37.663Z,101641.13
2022-08-10T02:05:07.526Z,101660.56
2022-08-10T02:07:38.034Z,101661.94
2022-08-10T02:10:11.903Z,101662.97
2022-08-10T02:12:42.003Z,101660.63
2022-08-10T02:15:15.958Z,101656.25
2022-08-10T02:17:57.798Z,101659.97
2022-08-10T02:20:34.694Z,101647.25
2022-08-10T02:23:06.194Z,101656.47
2022-08-10T02:25:41.190Z,101660.53
2022-08-10T02:28:27.264Z,101662.91
2022-08-10T02:31:02.455Z,101649.53
2022-08-10T02:33:37.332Z,101670.13
2022-08-10T02:36:08.700Z,101665.47
2022-08-10T02:38:58.563Z,101673.47
2022-08-10T02:45:03.202Z,101680.56
2022-08-10T02:45:23.509Z,101673.72
2022-08-10T02:47:23.116Z,101679.59
2022-08-10T02:49:58.611Z,101680.25
2022-08-10T02:52:36.281Z,101660.13
2022-08-10T02:55:17.826Z,101668.19
2022-08-10T02:58:12.746Z,101671.53
2022-08-10T03:00:45.389Z,101662.31
2022-08-10T03:03:19.376Z,101663.97
2022-08-10T03:05:52.150Z,101666.50
2022-08-10T03:08:22.483Z,101667.19
2022-08-10T03:10:51.999Z,101663.50
2022-08-10T03:13:21.656Z,101663.00
2022-08-10T03:15:52.415Z,101660.47
2022-08-10T03:18:22.771Z,101663.00
2022-08-10T03:20:55.128Z,101652.59
2022-08-10T03:23:24.804Z,101650.56
2022-08-10T03:25:55.018Z,101637.03
2022-08-10T03:28:24.665Z,101661.00
2022-08-10T03:30:53.782Z,101663.00
2022-08-10T03:33:23.322Z,101653.94
2022-08-10T03:36:41.985Z,101651.06
2022-08-10T03:38:41.488Z,101650.63
2022-08-10T03:43:47.856Z,101648.94
2022-08-10T03:46:19.277Z,101637.25
2022-08-10T03:48:50.040Z,101642.31
2022-08-10T03:51:20.926Z,101655.53
2022-08-10T03:54:04.604Z,101652.84
2022-08-10T03:56:36.714Z,101640.13
2022-08-10T03:59:05.835Z,101657.59
2022-08-10T04:02:45.115Z,101632.44
2022-08-10T04:04:24.604Z,101643.16
2022-08-10T04:06:56.270Z,101655.91
2022-08-10T04:09:43.088Z,101651.22
2022-08-10T04:12:14.187Z,101658.09
2022-08-10T04:14:49.587Z,101654.72
2022-08-10T04:17:18.410Z,101656.91
2022-08-10T04:20:08.962Z,101653.22
2022-08-10T04:22:39.250Z,101638.13
2022-08-10T04:25:09.326Z,101657.28
2022-08-10T04:27:37.366Z,101654.94
2022-08-10T04:30:06.127Z,101664.31
2022-08-10T04:32:35.353Z,101659.28
2022-08-10T04:35:05.707Z,101662.13
2022-08-10T04:37:37.317Z,101656.59
2022-08-10T04:40:28.587Z,101661.97
2022-08-10T04:43:09.071Z,101668.69
2022-08-10T04:45:49.889Z,101654.59
2022-08-10T04:48:42.365Z,101659.44
2022-08-10T04:51:08.077Z,101654.41
2022-08-10T04:54:05.317Z,101650.56
2022-08-10T04:56:31.835Z,101657.28
2022-08-10T04:59:00.237Z,101652.56
2022-08-10T05:02:22.689Z,101655.56
2022-08-10T05:04:36.231Z,101645.50
2022-08-10T05:07:04.101Z,101658.56
2022-08-10T05:09:31.990Z,101660.75
2022-08-10T05:12:01.174Z,101661.25
2022-08-10T05:14:29.359Z,101667.63
2022-08-10T05:16:57.195Z,101666.78
2022-08-10T05:20:04.007Z,101664.22
2022-08-10T05:22:13.985Z,101668.97
2022-08-10T05:24:41.765Z,101668.97
2022-08-10T05:27:11.025Z,101668.28
2022-08-10T05:29:39.159Z,101673.50
2022-08-10T05:32:07.707Z,101676.81
2022-08-10T05:34:35.548Z,101677.19
2022-08-10T05:37:04.130Z,101674.00
2022-08-10T05:39:33.409Z,101673.13
2022-08-10T05:42:02.909Z,101680.19
2022-08-10T05:44:32.200Z,101677.31
2022-08-10T05:47:00.019Z,101674.81
2022-08-10T05:49:27.918Z,101680.84
2022-08-10T05:51:55.797Z,101682.69
2022-08-10T05:54:25.550Z,101683.38
2022-08-10T05:56:58.034Z,101679.16
2022-08-10T06:00:29.296Z,101688.72
2022-08-10T06:02:41.768Z,101683.00
2022-08-10T06:05:11.847Z,101691.38
2022-08-10T06:07:42.308Z,101687.69
2022-08-10T06:10:14.508Z,101681.97
2022-08-10T06:13:26.590Z,101672.63
2022-08-10T06:15:59.965Z,101681.97
2022-08-10T06:18:29.123Z,101678.94
2022-08-10T06:20:58.500Z,101685.00
2022-08-10T06:23:29.469Z,101682.31
2022-08-10T06:26:10.865Z,101689.00
2022-08-10T06:28:59.029Z,101663.84
2022-08-10T06:31:46.834Z,101694.84
2022-08-10T06:34:21.973Z,101695.00
2022-08-10T06:36:50.821Z,101690.28
2022-08-10T06:39:35.475Z,101694.09
2022-08-10T06:42:17.675Z,101690.22
2022-08-10T06:44:55.543Z,101697.59
2022-08-10T06:47:26.599Z,101704.13
2022-08-10T06:50:02.676Z,101690.16
2022-08-10T06:52:34.274Z,101694.16
2022-08-10T06:55:05.264Z,101694.47
2022-08-10T06:57:38.486Z,101680.72
2022-08-10T07:00:09.260Z,101690.88
2022-08-10T07:02:45.341Z,101694.72
2022-08-10T07:05:20.039Z,101695.22
2022-08-10T07:07:48.956Z,101696.72
2022-08-10T07:10:20.451Z,101697.53
2022-08-10T07:12:49.512Z,101660.63
2022-08-10T07:15:18.589Z,101695.66
2022-08-10T07:17:47.887Z,101685.25
2022-08-10T07:20:19.451Z,101694.41
2022-08-10T07:23:08.361Z,101704.47
2022-08-10T07:25:38.988Z,101704.91
2022-08-10T07:28:08.299Z,101685.78
2022-08-10T07:30:39.539Z,101694.44
2022-08-10T07:33:09.474Z,101696.78
2022-08-10T07:35:43.034Z,101699.13
2022-08-10T07:38:17.002Z,101690.91
2022-08-10T07:40:46.286Z,101704.41
2022-08-10T07:43:16.926Z,101702.69
2022-08-10T07:45:47.208Z,101699.69
2022-08-10T07:48:17.884Z,101706.66
2022-08-10T07:50:48.819Z,101710.69
2022-08-10T07:53:22.519Z,101706.78
2022-08-10T07:56:05.642Z,101714.34
2022-08-10T07:58:46.397Z,101712.34
2022-08-10T08:01:22.329Z,101713.63
2022-08-10T08:04:10.919Z,101710.09
2022-08-10T08:06:42.444Z,101713.75
2022-08-10T08:09:11.290Z,101702.19
2022-08-10T08:11:40.823Z,101721.28
2022-08-10T08:14:10.210Z,101706.50
2022-08-10T08:16:40.455Z,101717.28
2022-08-10T08:19:26.613Z,101716.56
2022-08-10T08:24:06.053Z,101729.09
2022-08-10T08:24:47.821Z,101729.56
2022-08-10T08:27:21.038Z,101727.34
2022-08-10T08:29:50.769Z,101722.56
2022-08-10T08:32:22.251Z,101719.16
2022-08-10T08:34:53.895Z,101719.16
2022-08-10T08:38:31.604Z,101701.00
2022-08-10T08:40:16.215Z,101718.59
2022-08-10T08:43:16.704Z,101709.31
2022-08-10T08:46:04.521Z,101721.19
2022-08-10T08:48:56.412Z,101705.47
2022-08-10T08:52:09.382Z,101703.09
2022-08-10T08:54:37.999Z,101698.53
2022-08-10T08:57:12.296Z,101695.06
2022-08-10T09:00:02.203Z,101692.69
2022-08-10T09:02:42.174Z,101687.94
2022-08-10T09:05:24.777Z,101679.44
2022-08-10T09:08:15.149Z,101683.72
2022-08-10T09:10:53.616Z,101689.41
2022-08-10T09:13:29.372Z,101679.44
2022-08-10T09:16:21.773Z,101672.81
2022-08-10T09:18:54.346Z,101669.38
2022-08-10T09:21:29.225Z,101671.28
2022-08-10T09:24:05.861Z,101675.28
2022-08-10T09:26:43.815Z,101677.59
2022-08-10T09:29:16.088Z,101669.31
2022-08-10T09:31:55.930Z,101660.09
2022-08-10T09:36:20.698Z,101664.09
2022-08-10T09:38:01.734Z,101665.59
2022-08-10T09:40:58.919Z,101657.06
2022-08-10T09:43:41.394Z,101663.22
2022-08-10T09:46:21.427Z,101656.16
2022-08-10T09:49:03.071Z,101659.53
2022-08-10T09:51:47.375Z,101662.13
2022-08-10T09:54:28.273Z,101646.03
2022-08-10T09:57:43.291Z,101652.72
2022-08-10T10:00:01.332Z,101653.06
2022-08-10T10:02:43.207Z,101643.13
2022-08-10T10:05:22.741Z,101641.56
2022-08-10T10:07:58.399Z,101642.63
2022-08-10T10:10:36.325Z,101630.78
2022-08-10T10:13:52.925Z,101639.41
2022-08-10T10:16:26.964Z,101628.81
2022-08-10T10:19:05.761Z,101622.63
2022-08-10T10:21:55.625Z,101615.66
2022-08-10T10:24:34.161Z,101616.94
2022-08-10T10:27:16.377Z,101610.13
2022-08-10T10:29:56.748Z,101610.63
2022-08-10T10:32:40.092Z,101606.25
2022-08-10T10:35:16.627Z,101609.84
2022-08-10T10:38:01.275Z,101609.22
2022-08-10T10:40:38.812Z,101618.31
2022-08-10T10:43:16.529Z,101610.41
2022-08-10T10:45:55.064Z,101612.09
2022-08-10T10:48:33.968Z,101614.50
2022-08-10T10:51:10.834Z,101614.88
2022-08-10T10:53:48.620Z,101619.41
2022-08-10T10:56:21.771Z,101609.81
2022-08-10T10:59:54.043Z,101604.31
2022-08-10T11:02:00.769Z,101598.06
2022-08-10T11:04:41.471Z,101598.97
2022-08-10T11:07:21.940Z,101593.25
2022-08-10T11:10:09.431Z,101594.09
2022-08-10T11:13:03.794Z,101596.13
2022-08-10T11:15:58.589Z,101596.50
2022-08-10T11:18:34.245Z,101594.97
2022-08-10T11:21:13.567Z,101586.22
2022-08-10T11:24:47.146Z,101592.47
2022-08-10T11:26:53.584Z,101572.88
2022-08-10T11:29:26.439Z,101587.78
2022-08-10T11:32:01.123Z,101587.72
2022-08-10T11:34:48.475Z,101583.78
2022-08-10T11:38:29.620Z,101587.38
2022-08-10T11:40:36.544Z,101581.50
2022-08-10T11:43:14.345Z,101573.56
2022-08-10T11:45:51.563Z,101579.59
2022-08-10T11:48:53.038Z,101571.47
2022-08-10T11:51:23.869Z,101574.66
2022-08-10T11:54:03.317Z,101578.78
2022-08-10T11:56:35.306Z,101576.34
2022-08-10T11:59:20.764Z,101572.38
2022-08-10T12:01:51.511Z,101576.72
2022-08-10T12:04:21.436Z,101563.69
2022-08-10T12:06:56.324Z,101565.34
2022-08-10T12:10:05.016Z,101563.31
2022-08-10T12:12:17.484Z,101570.06
2022-08-10T12:14:54.314Z,101564.13
2022-08-10T12:17:30.085Z,101558.84
2022-08-10T12:20:05.410Z,101555.28
2022-08-10T12:22:39.677Z,101549.44
2022-08-10T12:25:54.996Z,101548.34
2022-08-10T12:28:10.636Z,101558.13
2022-08-10T12:30:47.641Z,101554.97
2022-08-10T12:33:23.545Z,101552.88
2022-08-10T12:36:18.011Z,101550.38
2022-08-10T12:38:54.002Z,101544.06
2022-08-10T12:41:45.031Z,101547.63
2022-08-10T12:44:20.106Z,101535.00
2022-08-10T12:46:56.118Z,101533.16
2022-08-10T12:49:31.619Z,101527.47
2022-08-10T12:52:04.030Z,101523.78
2022-08-10T12:54:36.707Z,101515.19
2022-08-10T12:57:10.046Z,101512.69
2022-08-10T12:59:43.184Z,101515.53
2022-08-10T13:02:15.146Z,101509.88
2022-08-10T13:04:44.267Z,101502.19
2022-08-10T13:08:03.723Z,101495.56
2022-08-10T13:10:03.938Z,101498.16
2022-08-10T13:12:40.333Z,101488.97
2022-08-10T13:15:25.348Z,101493.44
2022-08-10T13:18:17.898Z,101483.97
2022-08-10T13:20:52.451Z,101480.16
2022-08-10T13:23:24.531Z,101483.94
2022-08-10T13:25:56.097Z,101481.81
2022-08-10T13:28:39.445Z,101474.81
2022-08-10T13:31:16.802Z,101474.38
2022-08-10T13:34:41.522Z,101472.47
2022-08-10T13:36:39.111Z,101474.41
2022-08-10T13:39:08.068Z,101472.38
2022-08-10T13:41:40.791Z,101467.63
2022-08-10T13:44:13.859Z,101461.28
2022-08-10T13:46:49.163Z,101455.16
2022-08-10T13:49:18.843Z,101453.16
2022-08-10T13:51:56.422Z,101458.91
2022-08-10T13:54:28.457Z,101447.09
2022-08-10T13:56:57.701Z,101443.09
2022-08-10T14:00:35.419Z,101440.06
2022-08-10T14:02:26.050Z,101439.97
2022-08-10T14:04:56.826Z,101441.81
2022-08-10T14:07:26.108Z,101436.59
2022-08-10T14:09:59.343Z,101433.16
2022-08-10T14:12:33.600Z,101419.75
2022-08-10T14:15:04.577Z,101419.34
2022-08-10T14:17:34.221Z,101417.28
2022-08-10T14:20:12.769Z,101407.66
2022-08-10T14:22:42.720Z,101418.09
2022-08-10T14:25:12.573Z,101421.72
2022-08-10T14:28:02.158Z,101415.47
2022-08-10T14:30:34.097Z,101409.53
2022-08-10T14:33:04.643Z,101405.16
2022-08-10T14:36:21.250Z,101397.25
2022-08-10T14:38:28.502Z,101409.56
2022-08-10T14:40:59.878Z,101404.03
2022-08-10T14:43:30.297Z,101394.41
2022-08-10T14:46:05.638Z,101391.78
2022-08-10T14:48:40.126Z,101387.06
2022-08-10T14:51:10.202Z,101395.00
2022-08-10T14:53:42.180Z,101394.81
2022-08-10T14:56:13.668Z,101385.09
2022-08-10T14:59:05.769Z,101383.19
2022-08-10T15:02:00.691Z,101383.75
2022-08-10T15:04:28.833Z,101359.41
2022-08-10T15:07:01.292Z,101376.97
2022-08-10T15:10:01.612Z,101379.28
2022-08-10T15:12:26.652Z,101358.50
2022-08-10T15:15:00.844Z,101373.34
2022-08-10T15:17:36.878Z,101372.66
2022-08-10T15:20:15.715Z,101371.00
2022-08-10T15:22:50.316Z,101364.91
2022-08-10T15:25:24.315Z,101364.72
2022-08-10T15:27:56.999Z,101351.81
2022-08-10T15:30:30.872Z,101360.66
2022-08-10T15:34:03.271Z,101359.50
2022-08-10T15:36:32.413Z,101350.31
2022-08-10T15:39:03.834Z,101357.16
2022-08-10T15:41:58.540Z,101353.63
2022-08-10T15:44:37.748Z,101344.28
2022-08-10T15:47:09.207Z,101332.22
2022-08-10T15:49:48.904Z,101337.09
2022-08-10T15:52:59.905Z,101336.03
2022-08-10T15:55:44.037Z,101326.66
2022-08-10T15:58:13.861Z,101305.66
2022-08-10T16:00:55.122Z,101325.00
2022-08-10T16:03:27.150Z,101330.13
2022-08-10T16:06:02.565Z,101338.78
2022-08-10T16:08:55.792Z,101328.97
2022-08-10T16:11:37.584Z,101324.13
2022-08-10T16:14:22.631Z,101299.09
2022-08-10T16:16:55.795Z,101337.38
2022-08-10T16:19:26.215Z,101326.38
2022-08-10T16:22:34.253Z,101318.28
2022-08-10T16:24:53.668Z,101328.28
2022-08-10T16:27:24.815Z,101325.44
2022-08-10T16:29:59.367Z,101324.81
2022-08-10T16:32:29.994Z,101321.63
2022-08-10T16:35:00.385Z,101314.84
2022-08-10T16:37:57.778Z,101317.41
2022-08-10T16:40:26.492Z,101321.78
2022-08-10T16:42:55.792Z,101314.44
2022-08-10T16:45:31.815Z,101312.34
2022-08-10T16:48:01.025Z,101308.94
2022-08-10T16:50:30.730Z,101306.56
2022-08-10T16:53:03.168Z,101298.41
2022-08-10T16:55:47.595Z,101314.25
2022-08-10T16:58:20.698Z,101307.16
2022-08-10T17:00:51.091Z,101307.16
2022-08-10T17:04:05.622Z,101301.88
2022-08-10T17:06:20.362Z,101320.13
2022-08-10T17:08:52.777Z,101305.78
2022-08-10T17:11:23.308Z,101309.75
2022-08-10T17:13:51.521Z,101295.00
2022-08-10T17:16:21.660Z,101194.81
2022-08-10T17:18:50.405Z,101291.91
2022-08-10T17:21:21.755Z,101301.75
2022-08-10T17:23:53.886Z,101295.97
2022-08-10T17:26:35.397Z,101300.47
2022-08-10T17:29:09.060Z,101299.06
2022-08-10T17:31:54.984Z,101303.81
2022-08-10T17:34:29.400Z,101288.06
2022-08-10T17:36:59.099Z,101290.19
2022-08-10T17:39:33.347Z,101293.97
2022-08-10T17:42:03.211Z,101288.88
2022-08-10T17:44:36.889Z,101296.78
2022-08-10T17:47:10.550Z,101297.75
2022-08-10T17:49:40.977Z,101277.38
2022-08-10T17:52:11.422Z,101284.81
2022-08-10T17:54:44.288Z,101292.63
2022-08-10T17:57:17.895Z,101295.19
2022-08-10T17:59:47.794Z,101290.94
2022-08-10T18:02:18.937Z,101295.16
2022-08-10T18:04:49.662Z,101293.16
2022-08-10T18:07:19.096Z,101284.34
2022-08-10T18:09:52.803Z,101296.63
2022-08-10T18:12:31.976Z,101290.84
2022-08-10T18:15:11.930Z,101275.78
2022-08-10T18:17:44.499Z,101292.22
2022-08-10T18:20:15.029Z,101300.22
2022-08-10T18:22:47.415Z,101296.94
2022-08-10T18:25:23.947Z,101309.16
2022-08-10T18:28:03.990Z,101275.38
2022-08-10T18:30:37.274Z,101309.63
2022-08-10T18:33:11.966Z,101293.06
2022-08-10T18:35:40.609Z,101304.53
2022-08-10T18:38:09.939Z,101316.03
2022-08-10T18:40:45.706Z,101315.66
2022-08-10T18:44:06.537Z,101300.13
2022-08-10T18:46:11.436Z,101305.41
2022-08-10T18:48:43.376Z,101321.25
2022-08-10T18:51:13.044Z,101324.72
2022-08-10T18:53:48.149Z,101296.59
2022-08-10T18:56:29.444Z,101322.00
2022-08-10T18:59:09.672Z,101324.56
2022-08-10T19:02:01.234Z,101301.34
2022-08-10T19:04:44.474Z,101323.81
2022-08-10T19:07:40.134Z,101329.75
2022-08-10T19:10:15.224Z,101332.28
2022-08-10T19:12:52.827Z,101330.28
2022-08-10T19:15:28.992Z,101329.81
2022-08-10T19:18:08.008Z,101335.69
2022-08-10T19:20:42.279Z,101339.91
2022-08-10T19:23:39.364Z,101330.75
2022-08-10T19:26:43.861Z,101343.69
2022-08-10T19:30:09.221Z,101339.56
2022-08-10T19:32:25.541Z,101295.34
2022-08-10T19:35:02.369Z,101336.28
2022-08-10T19:37:38.203Z,101336.72
2022-08-10T19:40:21.600Z,101338.00
2022-08-10T19:43:20.583Z,101344.84
2022-08-10T19:46:05.531Z,101343.88
2022-08-10T19:48:42.619Z,101342.63
2022-08-10T19:51:17.518Z,101326.44
2022-08-10T19:53:54.444Z,101340.75
2022-08-10T19:56:35.299Z,101344.78
2022-08-10T19:59:10.241Z,101345.41
2022-08-10T20:01:54.994Z,101343.34
2022-08-10T20:04:31.921Z,101336.53
2022-08-10T20:07:13.706Z,101355.66
2022-08-10T20:09:47.694Z,101361.53
2022-08-10T20:12:25.025Z,101360.31
2022-08-10T20:15:05.351Z,101354.88
2022-08-10T20:17:52.718Z,101347.41
2022-08-10T20:20:31.243Z,101351.59
2022-08-10T20:23:08.877Z,101353.91
2022-08-10T20:25:37.109Z,101339.00
2022-08-10T20:28:14.385Z,101348.78
2022-08-10T20:30:46.376Z,101350.03
2022-08-10T20:33:24.222Z,101358.31
2022-08-10T20:36:00.336Z,101375.47
2022-08-10T20:38:34.241Z,101362.34
2022-08-10T20:41:19.262Z,101358.41
2022-08-10T20:43:57.602Z,101358.59
2022-08-10T20:46:31.014Z,101361.75
2022-08-10T20:49:05.307Z,101355.06
2022-08-10T20:51:58.041Z,101355.53
2022-08-10T20:54:32.503Z,101362.00
2022-08-10T20:57:53.556Z,101362.41
2022-08-10T21:00:10.862Z,101362.00
2022-08-10T21:03:06.940Z,101358.88
2022-08-10T21:05:50.028Z,101368.50
2022-08-10T21:08:30.074Z,101363.69
2022-08-10T21:11:06.048Z,101367.66
2022-08-10T21:13:58.188Z,101362.66
2022-08-10T21:16:38.040Z,101367.44
2022-08-10T21:19:53.715Z,101368.50
2022-08-10T21:22:28.980Z,101369.75
2022-08-10T21:25:02.185Z,101371.00
2022-08-10T21:27:49.062Z,101371.44
2022-08-10T21:30:36.839Z,101375.59
2022-08-10T21:33:11.937Z,101371.00
2022-08-10T21:35:44.387Z,101376.00
2022-08-10T21:38:24.413Z,101383.47
2022-08-10T21:41:56.508Z,101374.31
2022-08-10T21:45:08.008Z,101366.03
2022-08-10T21:48:16.516Z,101367.44
2022-08-10T21:51:14.754Z,101371.84
2022-08-10T21:54:11.662Z,101370.19
2022-08-10T21:57:08.259Z,101364.75
2022-08-10T21:59:58.843Z,101367.47
2022-08-10T22:02:50.421Z,101365.16
2022-08-10T22:05:55.216Z,101368.06
2022-08-10T22:08:44.548Z,101345.97
2022-08-10T22:11:37.797Z,101358.47
2022-08-10T22:14:25.798Z,101355.97
2022-08-10T22:18:03.440Z,101354.50
2022-08-10T22:20:27.076Z,101355.75
2022-08-10T22:23:28.927Z,101358.84
2022-08-10T22:26:25.230Z,101356.78
2022-08-10T22:29:14.298Z,101353.63
2022-08-10T22:32:15.280Z,101351.97
2022-08-10T22:35:15.982Z,101352.97
2022-08-10T22:38:14.256Z,101360.03
2022-08-10T22:41:03.426Z,101350.28
2022-08-10T22:43:51.864Z,101347.94
2022-08-10T22:46:42.425Z,101345.44
2022-08-10T22:49:10.068Z,101346.66
2022-08-10T22:51:48.513Z,101347.25
2022-08-10T22:54:40.191Z,101348.47
2022-08-10T22:57:30.621Z,101335.34
2022-08-10T22:59:59.023Z,101344.28
2022-08-10T23:02:34.948Z,101346.53
2022-08-10T23:05:09.172Z,101352.31
2022-08-10T23:07:46.696Z,101348.16
2022-08-10T23:10:16.695Z,101348.53
2022-08-10T23:12:50.656Z,101341.88
2022-08-10T23:15:43.656Z,101348.72
2022-08-10T23:18:36.508Z,101351.22
2022-08-10T23:21:05.628Z,101351.59
2022-08-10T23:23:40.241Z,101360.09
2022-08-10T23:26:12.838Z,101353.03
2022-08-10T23:29:04.234Z,101358.22
2022-08-10T23:32:00.640Z,101348.41
2022-08-10T23:34:24.041Z,101356.75
2022-08-10T23:36:53.804Z,101360.72
2022-08-10T23:39:29.150Z,101347.81
2022-08-10T23:42:06.951Z,101353.41
2022-08-10T23:44:39.085Z,101334.16
2022-08-10T23:47:08.523Z,101356.63
2022-08-10T23:49:39.669Z,101348.94
2022-08-10T23:52:13.011Z,101355.78
2022-08-10T23:54:45.993Z,101351.22
2022-08-10T23:57:18.300Z,101354.06
2022-08-10T23:59:56.951Z,101349.88
